Time,TemperatureF,DewpointF,PressureIn,WindDirection,WindDirectionDegrees,WindSpeedMPH,WindSpeedGustMPH,Humidity,HourlyPrecipIn,Conditions,Clouds,dailyrainin,SoftwareType,DateUTC
2013-07-02 00:05:00,73.9,73.9,29.97,NE,46,0.0,0.0,100,0.00,,,0.00,Wunderground v.1.15,2013-07-02 04:05:00,
2013-07-02 00:10:00,74.0,74.0,29.97,NE,46,0.0,0.0,100,0.00,,,0.00,Wunderground v.1.15,2013-07-02 04:10:00,
2013-07-02 00:15:00,73.9,73.9,29.97,NE,46,0.0,0.0,100,0.00,,,0.00,Wunderground v.1.15,2013-07-02 04:15:00,
2013-07-02 00:20:00,73.9,73.9,29.97,NE,46,0.0,0.0,100,0.00,,,0.00,Wunderground v.1.15,2013-07-02 04:20:00,
2013-07-02 00:30:00,73.9,73.9,29.97,NE,46,0.0,0.0,100,0.00,,,0.00,Wunderground v.1.15,2013-07-02 04:30:00,
2013-07-02 00:40:00,73.9,73.9,29.97,NE,46,0.0,0.0,100,0.00,,,0.00,Wunderground v.1.15,2013-07-02 04:40:00,
2013-07-02 00:45:00,73.8,73.8,29.97,NE,46,0.0,1.0,100,0.00,,,0.00,Wunderground v.1.15,2013-07-02 04:45:00,
2013-07-02 00:51:00,73.8,73.8,29.97,NE,46,0.0,0.0,100,0.00,,,0.00,Wunderground v.1.15,2013-07-02 04:51:00,
2013-07-02 01:00:00,73.7,73.7,29.97,NE,46,0.0,0.0,100,0.00,,,0.00,Wunderground v.1.15,2013-07-02 05:00:00,
2013-07-02 01:10:00,73.7,73.7,29.98,NE,46,0.0,0.0,100,0.00,,,0.00,Wunderground v.1.15,2013-07-02 05:10:00,
2013-07-02 01:20:00,73.6,73.6,29.98,NE,46,0.0,0.0,100,0.00,,,0.00,Wunderground v.1.15,2013-07-02 05:20:00,
2013-07-02 01:25:00,73.5,73.5,29.97,NE,46,0.0,0.0,100,0.00,,,0.00,Wunderground v.1.15,2013-07-02 05:25:00,
2013-07-02 01:35:00,73.5,73.5,29.97,NE,46,0.0,0.0,100,0.00,,,0.00,Wunderground v.1.15,2013-07-02 05:35:00,
2013-07-02 01:40:00,73.5,73.5,29.98,NE,46,0.0,0.0,100,0.00,,,0.00,Wunderground v.1.15,2013-07-02 05:40:00,
2013-07-02 01:46:00,73.5,73.5,29.97,NE,46,0.0,1.0,100,0.00,,,0.00,Wunderground v.1.15,2013-07-02 05:46:00,
2013-07-02 01:55:00,73.5,73.5,29.98,ENE,61,0.0,2.0,100,0.00,,,0.01,Wunderground v.1.15,2013-07-02 05:55:00,
2013-07-02 02:05:00,73.4,73.4,29.98,SSE,166,0.0,0.0,100,0.00,,,0.01,Wunderground v.1.15,2013-07-02 06:05:00,
2013-07-02 02:15:00,73.3,73.3,29.98,SSE,166,0.0,1.0,100,0.00,,,0.01,Wunderground v.1.15,2013-07-02 06:15:00,
2013-07-02 02:25:00,73.2,73.2,29.98,ESE,105,0.0,2.0,100,0.00,,,0.01,Wunderground v.1.15,2013-07-02 06:25:00,
2013-07-02 02:35:00,73.1,73.1,29.98,ESE,105,0.0,0.0,100,0.00,,,0.01,Wunderground v.1.15,2013-07-02 06:35:00,
2013-07-02 02:45:00,73.0,73.0,29.98,ESE,105,0.0,1.0,100,0.00,,,0.01,Wunderground v.1.15,2013-07-02 06:45:00,
2013-07-02 02:50:00,72.9,72.9,29.98,ENE,57,0.0,0.0,100,0.00,,,0.01,Wunderground v.1.15,2013-07-02 06:50:00,
2013-07-02 03:00:00,72.9,72.9,29.99,ENE,59,0.0,1.0,100,0.00,,,0.01,Wunderground v.1.15,2013-07-02 07:00:00,
2013-07-02 03:10:00,72.8,72.8,29.99,ENE,59,0.0,0.0,100,0.00,,,0.01,Wunderground v.1.15,2013-07-02 07:10:00,
2013-07-02 03:20:00,72.8,72.8,29.99,ENE,59,0.0,0.0,100,0.00,,,0.01,Wunderground v.1.15,2013-07-02 07:20:00,
2013-07-02 03:30:00,72.9,72.9,30.00,SE,124,0.0,1.0,100,0.00,,,0.01,Wunderground v.1.15,2013-07-02 07:30:00,
2013-07-02 03:40:00,72.8,72.8,30.00,NE,53,0.0,0.0,100,0.00,,,0.01,Wunderground v.1.15,2013-07-02 07:40:00,
2013-07-02 03:50:00,72.8,72.8,30.00,East,97,0.0,0.0,100,0.00,,,0.01,Wunderground v.1.15,2013-07-02 07:50:00,
2013-07-02 04:00:00,72.8,72.8,30.00,East,97,0.0,0.0,100,0.00,,,0.02,Wunderground v.1.15,2013-07-02 08:00:00,
2013-07-02 04:05:00,72.8,72.8,30.00,East,97,0.0,0.0,100,0.00,,,0.02,Wunderground v.1.15,2013-07-02 08:05:00,
2013-07-02 04:15:00,72.8,72.8,30.00,East,97,0.0,0.0,100,0.05,,,0.03,Wunderground v.1.15,2013-07-02 08:15:00,
2013-07-02 04:25:00,72.7,72.7,30.00,East,97,0.0,0.0,100,0.04,,,0.04,Wunderground v.1.15,2013-07-02 08:25:00,
2013-07-02 04:35:00,72.7,72.7,30.01,East,97,0.0,0.0,100,0.04,,,0.04,Wunderground v.1.15,2013-07-02 08:35:00,
2013-07-02 04:45:00,72.6,72.6,30.01,East,97,0.0,0.0,100,0.05,,,0.05,Wunderground v.1.15,2013-07-02 08:45:00,
2013-07-02 04:55:00,72.6,72.6,30.01,East,97,0.0,0.0,100,0.00,,,0.05,Wunderground v.1.15,2013-07-02 08:55:00,
2013-07-02 05:00:00,72.6,72.6,30.01,East,97,0.0,0.0,100,0.00,,,0.05,Wunderground v.1.15,2013-07-02 09:00:00,
2013-07-02 05:10:00,72.6,72.6,30.01,East,97,0.0,0.0,100,0.00,,,0.05,Wunderground v.1.15,2013-07-02 09:10:00,
2013-07-02 05:20:00,72.6,72.6,30.01,East,97,0.0,0.0,100,0.00,,,0.05,Wunderground v.1.15,2013-07-02 09:20:00,
2013-07-02 05:30:00,72.6,72.6,30.02,East,97,0.0,0.0,100,0.00,,,0.05,Wunderground v.1.15,2013-07-02 09:30:00,
2013-07-02 05:40:00,72.6,72.6,30.02,East,97,0.0,0.0,100,0.00,,,0.05,Wunderground v.1.15,2013-07-02 09:40:00,
2013-07-02 05:45:00,72.6,72.6,30.02,East,97,0.0,0.0,100,0.00,,,0.05,Wunderground v.1.15,2013-07-02 09:45:00,
2013-07-02 05:55:00,72.6,72.6,30.03,East,97,0.0,1.0,100,0.00,,,0.05,Wunderground v.1.15,2013-07-02 09:55:00,
2013-07-02 06:05:00,72.6,72.6,30.03,East,97,0.0,1.0,100,0.00,,,0.05,Wunderground v.1.15,2013-07-02 10:05:00,
2013-07-02 06:15:00,72.5,72.5,30.04,East,97,0.0,0.0,100,0.00,,,0.05,Wunderground v.1.15,2013-07-02 10:15:00,
2013-07-02 06:25:00,72.5,72.5,30.04,East,97,0.0,0.0,100,0.00,,,0.05,Wunderground v.1.15,2013-07-02 10:25:00,
2013-07-02 06:35:00,72.5,72.5,30.04,East,97,0.0,0.0,100,0.00,,,0.05,Wunderground v.1.15,2013-07-02 10:35:00,
2013-07-02 06:45:00,72.5,72.5,30.05,East,97,0.0,0.0,100,0.00,,,0.05,Wunderground v.1.15,2013-07-02 10:45:00,
2013-07-02 06:55:00,72.5,72.5,30.05,East,97,0.0,0.0,100,0.00,,,0.05,Wunderground v.1.15,2013-07-02 10:55:00,
2013-07-02 07:05:00,72.6,72.6,30.05,East,97,0.0,0.0,100,0.00,,,0.05,Wunderground v.1.15,2013-07-02 11:05:00,
2013-07-02 07:10:00,72.6,72.6,30.05,East,97,0.0,0.0,100,0.00,,,0.05,Wunderground v.1.15,2013-07-02 11:10:00,
2013-07-02 07:20:00,72.6,72.6,30.05,East,97,0.0,0.0,100,0.00,,,0.05,Wunderground v.1.15,2013-07-02 11:20:00,
2013-07-02 07:30:00,72.7,72.7,30.06,East,97,0.0,0.0,100,0.00,,,0.05,Wunderground v.1.15,2013-07-02 11:30:00,
2013-07-02 07:40:00,72.8,72.8,30.06,East,97,0.0,0.0,100,0.00,,,0.05,Wunderground v.1.15,2013-07-02 11:40:00,
2013-07-02 07:50:00,72.9,72.9,30.06,East,97,0.0,1.0,100,0.00,,,0.05,Wunderground v.1.15,2013-07-02 11:50:00,
2013-07-02 08:00:00,72.9,72.9,30.06,East,97,0.0,0.0,100,0.00,,,0.05,Wunderground v.1.15,2013-07-02 12:00:00,
2013-07-02 08:05:00,73.0,73.0,30.07,East,97,0.0,0.0,100,0.00,,,0.05,Wunderground v.1.15,2013-07-02 12:05:00,
2013-07-02 08:15:00,73.0,73.0,30.07,East,97,0.0,0.0,100,0.00,,,0.05,Wunderground v.1.15,2013-07-02 12:15:00,
2013-07-02 08:25:00,73.1,73.1,30.07,East,97,0.0,0.0,100,0.00,,,0.05,Wunderground v.1.15,2013-07-02 12:25:00,
2013-07-02 08:35:00,73.1,73.1,30.07,East,97,0.0,0.0,100,0.00,,,0.05,Wunderground v.1.15,2013-07-02 12:35:00,
2013-07-02 08:45:00,73.3,73.3,30.08,ESE,111,0.0,1.0,100,0.00,,,0.05,Wunderground v.1.15,2013-07-02 12:45:00,
2013-07-02 08:55:00,73.3,73.3,30.08,ESE,111,0.0,1.0,100,0.00,,,0.05,Wunderground v.1.15,2013-07-02 12:55:00,
2013-07-02 09:05:00,73.4,73.4,30.08,ESE,110,0.0,0.0,100,0.00,,,0.05,Wunderground v.1.15,2013-07-02 13:05:00,
2013-07-02 09:10:00,73.4,73.4,30.08,ESE,110,0.0,0.0,100,0.00,,,0.05,Wunderground v.1.15,2013-07-02 13:10:00,
2013-07-02 09:20:00,73.5,73.5,30.08,WSW,250,0.0,0.0,100,0.00,,,0.05,Wunderground v.1.15,2013-07-02 13:20:00,
2013-07-02 09:30:00,73.8,73.8,30.08,WNW,294,0.0,1.0,100,0.00,,,0.05,Wunderground v.1.15,2013-07-02 13:30:00,
2013-07-02 09:40:00,74.0,74.0,30.08,NNW,327,0.0,0.0,100,0.00,,,0.05,Wunderground v.1.15,2013-07-02 13:40:00,
2013-07-02 09:50:00,74.2,74.2,30.09,ENE,64,0.0,1.0,100,0.00,,,0.05,Wunderground v.1.15,2013-07-02 13:50:00,
2013-07-02 10:00:00,74.4,74.4,30.09,ENE,63,1.0,1.0,100,0.00,,,0.05,Wunderground v.1.15,2013-07-02 14:00:00,
2013-07-02 10:10:00,74.7,74.7,30.09,East,96,0.0,0.0,100,0.00,,,0.05,Wunderground v.1.15,2013-07-02 14:10:00,
2013-07-02 10:20:00,74.8,74.8,30.09,West,274,0.0,4.0,100,0.00,,,0.05,Wunderground v.1.15,2013-07-02 14:20:00,
2013-07-02 10:30:00,74.9,74.9,30.09,West,274,0.0,0.0,100,0.00,,,0.05,Wunderground v.1.15,2013-07-02 14:30:00,
2013-07-02 10:35:00,75.1,75.1,30.09,West,274,0.0,0.0,100,0.00,,,0.05,Wunderground v.1.15,2013-07-02 14:35:00,
2013-07-02 10:45:00,75.1,75.1,30.09,West,274,0.0,0.0,100,0.00,,,0.05,Wunderground v.1.15,2013-07-02 14:45:00,
2013-07-02 10:55:00,75.0,75.0,30.09,West,274,0.0,0.0,100,0.00,,,0.05,Wunderground v.1.15,2013-07-02 14:55:00,
2013-07-02 11:05:00,75.0,75.0,30.10,West,274,0.0,0.0,100,0.00,,,0.05,Wunderground v.1.15,2013-07-02 15:05:00,
2013-07-02 11:15:00,74.7,74.7,30.10,West,274,0.0,0.0,100,0.00,,,0.06,Wunderground v.1.15,2013-07-02 15:15:00,
2013-07-02 11:20:00,74.5,74.5,30.11,SE,128,0.0,1.0,100,0.06,,,0.07,Wunderground v.1.15,2013-07-02 15:20:00,
2013-07-02 11:30:00,73.9,73.9,30.11,ENE,64,0.0,0.0,100,0.10,,,0.09,Wunderground v.1.15,2013-07-02 15:30:00,
2013-07-02 11:40:00,73.4,73.4,30.12,ENE,64,0.0,1.0,100,0.11,,,0.10,Wunderground v.1.15,2013-07-02 15:40:00,
2013-07-02 11:50:00,72.9,72.9,30.12,ENE,64,1.0,1.0,100,0.12,,,0.12,Wunderground v.1.15,2013-07-02 15:50:00,
2013-07-02 12:00:00,72.8,72.8,30.12,ENE,64,0.0,1.0,100,0.08,,,0.13,Wunderground v.1.15,2013-07-02 16:00:00,
2013-07-02 12:05:00,72.8,72.8,30.12,ENE,64,0.0,1.0,100,0.08,,,0.14,Wunderground v.1.15,2013-07-02 16:05:00,
2013-07-02 12:15:00,72.7,72.7,30.12,ENE,64,1.0,1.0,100,0.08,,,0.15,Wunderground v.1.15,2013-07-02 16:15:00,
2013-07-02 12:25:00,72.0,72.0,30.13,ENE,64,1.0,1.0,100,0.10,,,0.17,Wunderground v.1.15,2013-07-02 16:25:00,
2013-07-02 12:35:00,71.6,71.6,30.12,ENE,64,1.0,1.0,100,0.12,,,0.19,Wunderground v.1.15,2013-07-02 16:35:00,
2013-07-02 12:45:00,71.3,71.3,30.12,ENE,57,1.0,1.0,100,0.11,,,0.21,Wunderground v.1.15,2013-07-02 16:45:00,
2013-07-02 12:55:00,71.4,71.4,30.11,ENE,57,1.0,1.0,100,0.11,,,0.23,Wunderground v.1.15,2013-07-02 16:55:00,
2013-07-02 13:05:00,71.5,71.5,30.11,ENE,57,0.0,1.0,100,0.11,,,0.24,Wunderground v.1.15,2013-07-02 17:05:00,
2013-07-02 13:15:00,71.5,71.5,30.11,ENE,57,0.0,0.0,100,0.12,,,0.26,Wunderground v.1.15,2013-07-02 17:15:00,
2013-07-02 13:25:00,71.5,71.5,30.12,ENE,57,1.0,2.0,100,0.11,,,0.28,Wunderground v.1.15,2013-07-02 17:25:00,
2013-07-02 13:30:00,71.5,71.5,30.12,ENE,57,1.0,1.0,100,0.09,,,0.29,Wunderground v.1.15,2013-07-02 17:30:00,
2013-07-02 13:40:00,71.6,71.6,30.11,ENE,57,0.0,1.0,100,0.10,,,0.30,Wunderground v.1.15,2013-07-02 17:40:00,
2013-07-02 13:50:00,71.8,71.8,30.12,ENE,57,0.0,0.0,100,0.08,,,0.32,Wunderground v.1.15,2013-07-02 17:50:00,
2013-07-02 14:00:00,71.7,71.7,30.12,SE,125,0.0,0.0,100,0.05,,,0.32,Wunderground v.1.15,2013-07-02 18:00:00,
2013-07-02 14:05:00,71.8,71.8,30.12,SE,125,0.0,0.0,100,0.04,,,0.32,Wunderground v.1.15,2013-07-02 18:05:00,
2013-07-02 14:15:00,72.0,72.0,30.12,SE,125,0.0,0.0,100,0.00,,,0.33,Wunderground v.1.15,2013-07-02 18:15:00,
2013-07-02 14:25:00,72.4,72.4,30.11,SE,125,0.0,0.0,100,0.00,,,0.33,Wunderground v.1.15,2013-07-02 18:25:00,
2013-07-02 14:35:00,72.9,72.9,30.12,SE,125,0.0,0.0,100,0.00,,,0.33,Wunderground v.1.15,2013-07-02 18:35:00,
2013-07-02 14:45:00,73.0,73.0,30.12,SE,125,0.0,0.0,100,0.00,,,0.33,Wunderground v.1.15,2013-07-02 18:45:00,
2013-07-02 14:55:00,73.0,73.0,30.13,NE,51,0.0,0.0,100,0.00,,,0.33,Wunderground v.1.15,2013-07-02 18:55:00,
2013-07-02 15:05:00,73.1,73.1,30.13,SW,236,0.0,1.0,100,0.00,,,0.33,Wunderground v.1.15,2013-07-02 19:05:00,
2013-07-02 15:10:00,73.0,73.0,30.13,SW,236,0.0,0.0,100,0.00,,,0.33,Wunderground v.1.15,2013-07-02 19:10:00,
2013-07-02 15:20:00,72.9,72.9,30.13,SW,236,0.0,1.0,100,0.00,,,0.33,Wunderground v.1.15,2013-07-02 19:20:00,
2013-07-02 15:30:00,72.8,72.8,30.13,SW,236,0.0,1.0,100,0.00,,,0.34,Wunderground v.1.15,2013-07-02 19:30:00,
2013-07-02 15:40:00,72.8,72.8,30.13,SW,236,0.0,1.0,100,0.00,,,0.34,Wunderground v.1.15,2013-07-02 19:40:00,
2013-07-02 15:50:00,72.9,72.9,30.13,WNW,282,0.0,0.0,100,0.00,,,0.34,Wunderground v.1.15,2013-07-02 19:50:00,
2013-07-02 16:00:00,73.1,73.1,30.13,WNW,282,0.0,0.0,100,0.00,,,0.34,Wunderground v.1.15,2013-07-02 20:00:00,
2013-07-02 16:10:00,73.2,73.2,30.12,WNW,282,0.0,0.0,100,0.00,,,0.34,Wunderground v.1.15,2013-07-02 20:10:00,
2013-07-02 16:15:00,73.2,73.2,30.12,WNW,282,0.0,0.0,100,0.00,,,0.34,Wunderground v.1.15,2013-07-02 20:15:00,
2013-07-02 16:25:00,73.3,73.3,30.12,NE,37,0.0,0.0,100,0.00,,,0.34,Wunderground v.1.15,2013-07-02 20:25:00,
2013-07-02 16:35:00,73.3,73.3,30.12,NE,37,0.0,0.0,100,0.00,,,0.34,Wunderground v.1.15,2013-07-02 20:35:00,
2013-07-02 16:45:00,73.2,73.2,30.12,NE,37,0.0,0.0,100,0.00,,,0.34,Wunderground v.1.15,2013-07-02 20:45:00,
2013-07-02 16:55:00,73.3,73.3,30.12,NE,37,0.0,0.0,100,0.00,,,0.35,Wunderground v.1.15,2013-07-02 20:55:00,
2013-07-02 17:05:00,73.4,73.4,30.12,NE,37,0.0,0.0,100,0.00,,,0.35,Wunderground v.1.15,2013-07-02 21:05:00,
2013-07-02 17:10:00,73.5,73.5,30.12,NE,37,0.0,0.0,100,0.00,,,0.35,Wunderground v.1.15,2013-07-02 21:10:00,
2013-07-02 17:20:00,73.6,73.6,30.11,NE,37,0.0,0.0,100,0.00,,,0.35,Wunderground v.1.15,2013-07-02 21:20:00,
2013-07-02 17:30:00,73.7,73.7,30.11,NE,37,0.0,0.0,100,0.00,,,0.35,Wunderground v.1.15,2013-07-02 21:30:00,
2013-07-02 17:40:00,73.7,73.7,30.11,NE,37,0.0,0.0,100,0.00,,,0.35,Wunderground v.1.15,2013-07-02 21:40:00,
2013-07-02 17:50:00,73.7,73.7,30.11,NE,37,0.0,0.0,100,0.00,,,0.35,Wunderground v.1.15,2013-07-02 21:50:00,
2013-07-02 18:00:00,73.6,73.6,30.11,NE,37,0.0,0.0,100,0.00,,,0.35,Wunderground v.1.15,2013-07-02 22:00:00,
2013-07-02 18:10:00,73.6,73.6,30.10,NE,37,0.0,0.0,100,0.00,,,0.35,Wunderground v.1.15,2013-07-02 22:10:00,
2013-07-02 18:20:00,73.5,73.5,30.10,NE,37,0.0,0.0,100,0.00,,,0.35,Wunderground v.1.15,2013-07-02 22:20:00,
2013-07-02 18:25:00,73.5,73.5,30.10,NE,37,0.0,0.0,100,0.00,,,0.35,Wunderground v.1.15,2013-07-02 22:25:00,
2013-07-02 18:35:00,73.5,73.5,30.11,NE,37,0.0,0.0,100,0.00,,,0.35,Wunderground v.1.15,2013-07-02 22:35:00,
2013-07-02 18:45:00,73.5,73.5,30.11,NE,37,0.0,0.0,100,0.00,,,0.35,Wunderground v.1.15,2013-07-02 22:45:00,
2013-07-02 18:55:00,73.5,73.5,30.11,WNW,286,0.0,0.0,100,0.00,,,0.35,Wunderground v.1.15,2013-07-02 22:55:00,
2013-07-02 19:05:00,73.5,73.5,30.11,WNW,286,0.0,0.0,100,0.00,,,0.35,Wunderground v.1.15,2013-07-02 23:05:00,
2013-07-02 19:10:00,73.4,73.4,30.12,WNW,286,0.0,0.0,100,0.00,,,0.35,Wunderground v.1.15,2013-07-02 23:10:00,
2013-07-02 19:20:00,73.4,73.4,30.12,WNW,286,0.0,0.0,100,0.00,,,0.35,Wunderground v.1.15,2013-07-02 23:20:00,
2013-07-02 19:30:00,73.3,73.3,30.13,WNW,286,0.0,0.0,100,0.00,,,0.35,Wunderground v.1.15,2013-07-02 23:30:00,
2013-07-02 19:40:00,73.3,73.3,30.13,WNW,286,0.0,0.0,100,0.00,,,0.35,Wunderground v.1.15,2013-07-02 23:40:00,
2013-07-02 19:50:00,73.3,73.3,30.13,WNW,286,0.0,0.0,100,0.00,,,0.35,Wunderground v.1.15,2013-07-02 23:50:00,
2013-07-02 19:55:00,73.2,73.2,30.13,WNW,286,0.0,0.0,100,0.00,,,0.35,Wunderground v.1.15,2013-07-02 23:55:00,
2013-07-02 20:00:00,73.3,73.3,30.13,WNW,286,0.0,0.0,100,0.00,,,0.35,Wunderground v.1.15,2013-07-03 00:00:00,
2013-07-02 20:05:00,73.2,73.2,30.14,WNW,286,0.0,0.0,100,0.00,,,0.35,Wunderground v.1.15,2013-07-03 00:05:00,
2013-07-02 20:10:00,73.2,73.2,30.14,WNW,286,0.0,0.0,100,0.00,,,0.35,Wunderground v.1.15,2013-07-03 00:10:00,
2013-07-02 20:20:00,73.1,73.1,30.14,WNW,286,0.0,0.0,100,0.00,,,0.36,Wunderground v.1.15,2013-07-03 00:20:00,
2013-07-02 20:25:00,73.1,73.1,30.14,North,360,0.0,1.0,100,0.00,,,0.36,Wunderground v.1.15,2013-07-03 00:25:00,
2013-07-02 20:30:00,73.0,73.0,30.14,North,360,0.0,0.0,100,0.00,,,0.36,Wunderground v.1.15,2013-07-03 00:30:00,
2013-07-02 20:35:00,73.0,73.0,30.14,North,360,0.0,0.0,100,0.00,,,0.36,Wunderground v.1.15,2013-07-03 00:35:00,
2013-07-02 20:45:00,73.0,73.0,30.14,North,360,0.0,0.0,100,0.00,,,0.36,Wunderground v.1.15,2013-07-03 00:45:00,
2013-07-02 20:55:00,72.9,72.9,30.14,North,360,0.0,0.0,100,0.00,,,0.36,Wunderground v.1.15,2013-07-03 00:55:00,
2013-07-02 21:00:00,72.8,72.8,30.14,North,360,0.0,0.0,100,0.00,,,0.36,Wunderground v.1.15,2013-07-03 01:00:00,
2013-07-02 21:05:00,72.8,72.8,30.14,North,360,0.0,0.0,100,0.00,,,0.36,Wunderground v.1.15,2013-07-03 01:05:00,
2013-07-02 21:10:00,72.8,72.8,30.14,North,360,0.0,0.0,100,0.00,,,0.36,Wunderground v.1.15,2013-07-03 01:10:00,
2013-07-02 21:15:00,72.7,72.7,30.15,North,360,0.0,0.0,100,0.00,,,0.36,Wunderground v.1.15,2013-07-03 01:15:00,
2013-07-02 21:25:00,72.7,72.7,30.15,North,360,0.0,0.0,100,0.00,,,0.36,Wunderground v.1.15,2013-07-03 01:25:00,
2013-07-02 21:35:00,72.7,72.7,30.15,North,360,0.0,0.0,100,0.00,,,0.36,Wunderground v.1.15,2013-07-03 01:35:00,
2013-07-02 21:45:00,72.7,72.7,30.15,North,360,0.0,0.0,100,0.00,,,0.36,Wunderground v.1.15,2013-07-03 01:45:00,
2013-07-02 21:50:00,72.7,72.7,30.16,North,360,0.0,0.0,100,0.00,,,0.36,Wunderground v.1.15,2013-07-03 01:50:00,
2013-07-02 21:55:00,72.7,72.7,30.16,North,360,0.0,0.0,100,0.00,,,0.36,Wunderground v.1.15,2013-07-03 01:55:00,
2013-07-02 22:06:00,72.6,72.6,30.16,North,360,0.0,0.0,100,0.00,,,0.36,Wunderground v.1.15,2013-07-03 02:06:00,
2013-07-02 22:15:00,72.6,72.6,30.16,North,360,0.0,0.0,100,0.00,,,0.36,Wunderground v.1.15,2013-07-03 02:15:00,
2013-07-02 22:20:00,72.6,72.6,30.16,North,360,0.0,0.0,100,0.00,,,0.36,Wunderground v.1.15,2013-07-03 02:20:00,
2013-07-02 22:25:00,72.6,72.6,30.16,North,360,0.0,0.0,100,0.00,,,0.36,Wunderground v.1.15,2013-07-03 02:25:00,
2013-07-02 22:35:00,72.6,72.6,30.16,North,360,0.0,0.0,100,0.00,,,0.36,Wunderground v.1.15,2013-07-03 02:35:00,
2013-07-02 22:40:00,72.5,72.5,30.16,North,360,0.0,0.0,100,0.00,,,0.36,Wunderground v.1.15,2013-07-03 02:40:00,
2013-07-02 22:45:00,72.5,72.5,30.16,North,360,0.0,0.0,100,0.00,,,0.36,Wunderground v.1.15,2013-07-03 02:45:00,
2013-07-02 22:55:00,72.6,72.6,30.16,North,360,0.0,0.0,100,0.00,,,0.36,Wunderground v.1.15,2013-07-03 02:55:00,
2013-07-02 23:10:00,72.6,72.6,30.15,North,360,0.0,0.0,100,0.00,,,0.36,Wunderground v.1.15,2013-07-03 03:10:00,
2013-07-02 23:16:00,72.6,72.6,30.15,North,360,0.0,0.0,100,0.00,,,0.36,Wunderground v.1.15,2013-07-03 03:16:00,
2013-07-02 23:25:00,72.6,72.6,30.15,North,360,0.0,0.0,100,0.00,,,0.36,Wunderground v.1.15,2013-07-03 03:25:00,
2013-07-02 23:30:00,72.7,72.7,30.15,North,360,0.0,0.0,100,0.00,,,0.36,Wunderground v.1.15,2013-07-03 03:30:00,
2013-07-02 23:36:00,72.7,72.7,30.15,North,360,0.0,0.0,100,0.00,,,0.36,Wunderground v.1.15,2013-07-03 03:36:00,
2013-07-02 23:40:00,72.7,72.7,30.15,North,360,0.0,0.0,100,0.00,,,0.36,Wunderground v.1.15,2013-07-03 03:40:00,
2013-07-02 23:50:00,72.7,72.7,30.15,North,360,0.0,0.0,100,0.00,,,0.36,Wunderground v.1.15,2013-07-03 03:50:00,
2013-07-02 23:55:00,72.8,72.8,30.15,North,360,0.0,0.0,100,0.00,,,0.37,Wunderground v.1.15,2013-07-03 03:55:00,